MAS2505 WBGG-WMKK
Flight info
| Callsign | MAS2505 |
|---|---|
| Flight time | 1h 28m |
| Altitude | 34000 |
| Route | AGOBA M761 KILOT/N0472F350 N892 KIBOL/N0472F280 G334 SAROX SAROX1G |
| Aircraft | B38M/M-SDE1FGHILORVWXY/HB1 |
Departure
| Time | 2026-05-05 18:39 |
|---|---|
| Airport | Kuching International Airport (WBGG) |
Arrival
| Time | 2026-05-05 20:08 |
|---|---|
| Airport | Kuala Lumpur International Airport (WMKK) |
| Time | Latitude | Longitude | Altitude | Speed | Heading |
|---|---|---|---|---|---|
| 2026-05-05 18:23 | 1.48689 | 110.34316 | 80 ft | 0 kts | 338° |
| 2026-05-05 18:30 | 1.48672 | 110.34323 | 86 ft | 4 kts | 339° |
| 2026-05-05 18:30 | 1.48647 | 110.34333 | 83 ft | 4 kts | 346° |
| 2026-05-05 18:31 | 1.48630 | 110.34334 | 84 ft | 4 kts | 14° |
| 2026-05-05 18:31 | 1.48608 | 110.34316 | 84 ft | 1 kts | 68° |
| 2026-05-05 18:31 | 1.48607 | 110.34315 | 84 ft | 2 kts | 68° |
| 2026-05-05 18:36 | 1.48610 | 110.34323 | 86 ft | 3 kts | 69° |
| 2026-05-05 18:36 | 1.48630 | 110.34373 | 83 ft | 14 kts | 68° |
| 2026-05-05 18:36 | 1.48680 | 110.34498 | 85 ft | 24 kts | 68° |
| 2026-05-05 18:36 | 1.48673 | 110.34678 | 81 ft | 31 kts | 72° |
| 2026-05-05 18:37 | 1.48764 | 110.34906 | 71 ft | 40 kts | 69° |
| 2026-05-05 18:37 | 1.48864 | 110.35159 | 65 ft | 36 kts | 68° |
| 2026-05-05 18:37 | 1.48964 | 110.35407 | 64 ft | 40 kts | 68° |
| 2026-05-05 18:37 | 1.49069 | 110.35669 | 58 ft | 41 kts | 68° |
| 2026-05-05 18:38 | 1.49138 | 110.35918 | 61 ft | 29 kts | 120° |
| 2026-05-05 18:38 | 1.49019 | 110.35987 | 67 ft | 7 kts | 194° |
| 2026-05-05 18:38 | 1.49007 | 110.35976 | 67 ft | 0 kts | 242° |
| 2026-05-05 18:39 | 1.48938 | 110.35810 | 71 ft | 64 kts | 248° |
| 2026-05-05 18:39 | 1.48677 | 110.35151 | 78 ft | 137 kts | 248° |
| 2026-05-05 18:39 | 1.48265 | 110.34103 | 243 ft | 182 kts | 249° |
| 2026-05-05 18:39 | 1.47804 | 110.32901 | 1117 ft | 183 kts | 248° |
| 2026-05-05 18:40 | 1.47332 | 110.31748 | 2071 ft | 184 kts | 247° |
| 2026-05-05 18:40 | 1.46817 | 110.30484 | 2455 ft | 207 kts | 247° |
| 2026-05-05 18:40 | 1.46244 | 110.29067 | 2840 ft | 233 kts | 247° |
| 2026-05-05 18:40 | 1.45618 | 110.27513 | 3442 ft | 246 kts | 247° |
| 2026-05-05 18:41 | 1.44977 | 110.25914 | 4314 ft | 252 kts | 247° |
| 2026-05-05 18:41 | 1.44304 | 110.24235 | 4927 ft | 268 kts | 248° |
| 2026-05-05 18:41 | 1.43596 | 110.22467 | 5689 ft | 276 kts | 248° |
| 2026-05-05 18:41 | 1.42878 | 110.20671 | 6525 ft | 281 kts | 248° |
| 2026-05-05 18:42 | 1.42144 | 110.18843 | 7313 ft | 285 kts | 248° |
| 2026-05-05 18:42 | 1.41558 | 110.16938 | 8103 ft | 290 kts | 262° |
| 2026-05-05 18:42 | 1.41681 | 110.14937 | 8909 ft | 292 kts | 287° |
| 2026-05-05 18:42 | 1.42646 | 110.13152 | 9696 ft | 296 kts | 312° |
| 2026-05-05 18:43 | 1.44055 | 110.11609 | 10278 ft | 307 kts | 309° |
| 2026-05-05 18:43 | 1.45388 | 110.09895 | 10604 ft | 327 kts | 308° |
| 2026-05-05 18:43 | 1.46830 | 110.08052 | 10882 ft | 346 kts | 308° |
| 2026-05-05 18:43 | 1.48356 | 110.06121 | 11224 ft | 361 kts | 309° |
| 2026-05-05 18:44 | 1.49943 | 110.04127 | 11759 ft | 368 kts | 309° |
| 2026-05-05 18:44 | 1.51552 | 110.02123 | 12450 ft | 371 kts | 309° |
| 2026-05-05 18:44 | 1.53178 | 110.00104 | 13085 ft | 375 kts | 309° |
| 2026-05-05 18:44 | 1.54824 | 109.98063 | 13732 ft | 379 kts | 309° |
| 2026-05-05 18:45 | 1.56481 | 109.96012 | 14300 ft | 382 kts | 309° |
| 2026-05-05 18:45 | 1.57879 | 109.93747 | 14866 ft | 386 kts | 293° |
| 2026-05-05 18:45 | 1.58738 | 109.91193 | 15434 ft | 390 kts | 284° |
| 2026-05-05 18:45 | 1.59287 | 109.88532 | 15968 ft | 393 kts | 282° |
| 2026-05-05 18:46 | 1.60100 | 109.85911 | 16494 ft | 396 kts | 289° |
| 2026-05-05 18:46 | 1.60958 | 109.83286 | 17014 ft | 399 kts | 288° |
| 2026-05-05 18:46 | 1.61766 | 109.80658 | 17526 ft | 402 kts | 287° |
| 2026-05-05 18:46 | 1.62583 | 109.77933 | 18044 ft | 406 kts | 287° |
| 2026-05-05 18:47 | 1.63371 | 109.75253 | 18469 ft | 409 kts | 287° |
| 2026-05-05 18:47 | 1.64168 | 109.72517 | 18898 ft | 411 kts | 287° |
| 2026-05-05 18:47 | 1.64969 | 109.69761 | 19324 ft | 414 kts | 287° |
| 2026-05-05 18:47 | 1.65774 | 109.66984 | 19738 ft | 417 kts | 286° |
| 2026-05-05 18:48 | 1.66583 | 109.64190 | 20136 ft | 420 kts | 287° |
| 2026-05-05 18:48 | 1.67398 | 109.61379 | 20531 ft | 422 kts | 286° |
| 2026-05-05 18:48 | 1.68216 | 109.58556 | 20924 ft | 424 kts | 286° |
| 2026-05-05 18:48 | 1.69028 | 109.55708 | 21300 ft | 427 kts | 285° |
| 2026-05-05 18:49 | 1.69807 | 109.52830 | 21684 ft | 430 kts | 285° |
| 2026-05-05 18:49 | 1.70593 | 109.49940 | 22065 ft | 432 kts | 285° |
| 2026-05-05 18:49 | 1.71387 | 109.47031 | 22432 ft | 434 kts | 285° |
| 2026-05-05 18:49 | 1.72183 | 109.44111 | 22801 ft | 437 kts | 285° |
| 2026-05-05 18:50 | 1.72986 | 109.41169 | 23147 ft | 439 kts | 285° |
| 2026-05-05 18:50 | 1.73783 | 109.38248 | 23478 ft | 442 kts | 285° |
| 2026-05-05 18:50 | 1.74593 | 109.35278 | 23761 ft | 444 kts | 285° |
| 2026-05-05 18:50 | 1.75406 | 109.32296 | 24054 ft | 446 kts | 285° |
| 2026-05-05 18:51 | 1.76225 | 109.29294 | 24342 ft | 448 kts | 285° |
| 2026-05-05 18:51 | 1.77046 | 109.26286 | 24637 ft | 450 kts | 285° |
| 2026-05-05 18:51 | 1.77870 | 109.23262 | 24919 ft | 452 kts | 285° |
| 2026-05-05 18:51 | 1.78697 | 109.20232 | 25198 ft | 454 kts | 285° |
| 2026-05-05 18:52 | 1.79530 | 109.17178 | 25472 ft | 456 kts | 285° |
| 2026-05-05 18:52 | 1.80366 | 109.14112 | 25748 ft | 458 kts | 285° |
| 2026-05-05 18:52 | 1.81202 | 109.11043 | 26039 ft | 459 kts | 285° |
| 2026-05-05 18:52 | 1.82046 | 109.07949 | 26311 ft | 461 kts | 285° |
| 2026-05-05 18:53 | 1.82890 | 109.04852 | 26576 ft | 463 kts | 285° |
| 2026-05-05 18:53 | 1.83739 | 109.01738 | 26842 ft | 465 kts | 285° |
| 2026-05-05 18:53 | 1.84592 | 108.98609 | 27109 ft | 467 kts | 285° |
| 2026-05-05 18:53 | 1.85448 | 108.95467 | 27361 ft | 469 kts | 285° |
| 2026-05-05 18:54 | 1.86307 | 108.92316 | 27636 ft | 471 kts | 285° |
| 2026-05-05 18:54 | 1.87171 | 108.89148 | 27904 ft | 473 kts | 285° |
| 2026-05-05 18:54 | 1.88025 | 108.86013 | 28140 ft | 475 kts | 285° |
| 2026-05-05 18:54 | 1.88907 | 108.82776 | 28395 ft | 477 kts | 285° |
| 2026-05-05 18:55 | 1.89767 | 108.79620 | 28641 ft | 479 kts | 285° |
| 2026-05-05 18:55 | 1.90643 | 108.76403 | 28890 ft | 480 kts | 285° |
| 2026-05-05 18:55 | 1.91523 | 108.73172 | 29135 ft | 482 kts | 285° |
| 2026-05-05 18:55 | 1.92405 | 108.69935 | 29376 ft | 484 kts | 285° |
| 2026-05-05 18:56 | 1.93291 | 108.66683 | 29608 ft | 486 kts | 285° |
| 2026-05-05 18:56 | 1.94181 | 108.63413 | 29842 ft | 487 kts | 285° |
| 2026-05-05 18:56 | 1.95074 | 108.60134 | 30053 ft | 489 kts | 285° |
| 2026-05-05 18:56 | 1.95969 | 108.56847 | 30247 ft | 490 kts | 285° |
| 2026-05-05 18:57 | 1.96865 | 108.53557 | 30453 ft | 492 kts | 285° |
| 2026-05-05 18:57 | 1.97771 | 108.50252 | 30645 ft | 493 kts | 285° |
| 2026-05-05 18:57 | 1.98699 | 108.46940 | 30883 ft | 493 kts | 285° |
| 2026-05-05 18:57 | 1.99611 | 108.43676 | 31147 ft | 493 kts | 285° |
| 2026-05-05 18:58 | 2.00533 | 108.40376 | 31417 ft | 493 kts | 285° |
| 2026-05-05 18:58 | 2.01454 | 108.37078 | 31693 ft | 492 kts | 285° |
| 2026-05-05 18:58 | 2.02374 | 108.33785 | 31976 ft | 492 kts | 285° |
| 2026-05-05 18:58 | 2.03293 | 108.30492 | 32264 ft | 491 kts | 285° |
| 2026-05-05 18:59 | 2.04208 | 108.27214 | 32553 ft | 490 kts | 285° |
| 2026-05-05 18:59 | 2.05126 | 108.23926 | 32846 ft | 489 kts | 285° |
| 2026-05-05 18:59 | 2.06042 | 108.20645 | 33126 ft | 489 kts | 285° |
| 2026-05-05 18:59 | 2.06955 | 108.17375 | 33415 ft | 488 kts | 285° |
| 2026-05-05 19:00 | 2.07866 | 108.14109 | 33708 ft | 487 kts | 285° |
| 2026-05-05 19:00 | 2.08779 | 108.10838 | 33838 ft | 488 kts | 285° |
| 2026-05-05 19:00 | 2.10594 | 108.04333 | 33836 ft | 485 kts | 285° |
| 2026-05-05 19:01 | 2.12408 | 107.97831 | 33834 ft | 485 kts | 285° |
| 2026-05-05 19:01 | 2.14208 | 107.91378 | 33831 ft | 485 kts | 285° |
| 2026-05-05 19:02 | 2.16017 | 107.84890 | 33828 ft | 485 kts | 285° |
| 2026-05-05 19:02 | 2.17823 | 107.78393 | 33828 ft | 484 kts | 285° |
| 2026-05-05 19:03 | 2.19627 | 107.71903 | 33828 ft | 484 kts | 285° |
| 2026-05-05 19:03 | 2.21431 | 107.65412 | 33831 ft | 485 kts | 285° |
| 2026-05-05 19:04 | 2.23239 | 107.58907 | 33828 ft | 484 kts | 285° |
| 2026-05-05 19:04 | 2.25042 | 107.52417 | 33829 ft | 484 kts | 285° |
| 2026-05-05 19:05 | 2.26845 | 107.45924 | 33830 ft | 484 kts | 285° |
| 2026-05-05 19:05 | 2.28648 | 107.39434 | 33829 ft | 484 kts | 285° |
| 2026-05-05 19:06 | 2.30437 | 107.32989 | 33824 ft | 484 kts | 285° |
| 2026-05-05 19:06 | 2.32239 | 107.26498 | 33827 ft | 485 kts | 285° |
| 2026-05-05 19:07 | 2.34043 | 107.20001 | 33828 ft | 484 kts | 285° |
| 2026-05-05 19:07 | 2.35842 | 107.13516 | 33827 ft | 484 kts | 285° |
| 2026-05-05 19:08 | 2.37637 | 107.07021 | 33823 ft | 484 kts | 285° |
| 2026-05-05 19:08 | 2.39427 | 107.00529 | 33828 ft | 484 kts | 285° |
| 2026-05-05 19:09 | 2.41219 | 106.94029 | 33826 ft | 484 kts | 285° |
| 2026-05-05 19:09 | 2.43008 | 106.87543 | 33829 ft | 485 kts | 285° |
| 2026-05-05 19:10 | 2.44800 | 106.81042 | 33827 ft | 484 kts | 285° |
| 2026-05-05 19:10 | 2.46589 | 106.74546 | 33827 ft | 484 kts | 285° |
| 2026-05-05 19:11 | 2.48381 | 106.68046 | 33825 ft | 484 kts | 285° |
| 2026-05-05 19:11 | 2.50158 | 106.61591 | 33824 ft | 484 kts | 285° |
| 2026-05-05 19:12 | 2.51945 | 106.55102 | 33826 ft | 484 kts | 285° |
| 2026-05-05 19:12 | 2.53724 | 106.48603 | 33824 ft | 484 kts | 285° |
| 2026-05-05 19:13 | 2.55503 | 106.42106 | 33830 ft | 484 kts | 285° |
| 2026-05-05 19:13 | 2.57299 | 106.35621 | 33825 ft | 484 kts | 285° |
| 2026-05-05 19:14 | 2.59092 | 106.29141 | 33831 ft | 483 kts | 285° |
| 2026-05-05 19:14 | 2.60872 | 106.22709 | 33827 ft | 483 kts | 285° |
| 2026-05-05 19:15 | 2.62667 | 106.16222 | 33830 ft | 483 kts | 285° |
| 2026-05-05 19:15 | 2.64458 | 106.09747 | 33826 ft | 483 kts | 285° |
| 2026-05-05 19:16 | 2.66251 | 106.03264 | 33828 ft | 483 kts | 285° |
| 2026-05-05 19:16 | 2.68041 | 105.96788 | 33826 ft | 483 kts | 285° |
| 2026-05-05 19:17 | 2.69833 | 105.90307 | 33830 ft | 483 kts | 285° |
| 2026-05-05 19:17 | 2.71622 | 105.83831 | 33829 ft | 483 kts | 285° |
| 2026-05-05 19:18 | 2.73411 | 105.77358 | 33824 ft | 483 kts | 285° |
| 2026-05-05 19:18 | 2.75187 | 105.70932 | 33825 ft | 483 kts | 285° |
| 2026-05-05 19:19 | 2.76976 | 105.64457 | 33822 ft | 483 kts | 285° |
| 2026-05-05 19:19 | 2.78761 | 105.57997 | 33824 ft | 482 kts | 285° |
| 2026-05-05 19:20 | 2.80248 | 105.52615 | 33823 ft | 482 kts | 285° |
| 2026-05-05 19:20 | 2.82035 | 105.46144 | 33820 ft | 482 kts | 285° |
| 2026-05-05 19:21 | 2.83821 | 105.39676 | 33824 ft | 482 kts | 285° |
| 2026-05-05 19:21 | 2.85606 | 105.33212 | 33827 ft | 482 kts | 285° |
| 2026-05-05 19:22 | 2.87390 | 105.26747 | 33823 ft | 482 kts | 285° |
| 2026-05-05 19:22 | 2.89178 | 105.20275 | 33822 ft | 482 kts | 285° |
| 2026-05-05 19:23 | 2.90962 | 105.13821 | 33825 ft | 481 kts | 285° |
| 2026-05-05 19:23 | 2.92735 | 105.07405 | 33823 ft | 481 kts | 285° |
| 2026-05-05 19:24 | 2.94517 | 105.00953 | 33822 ft | 481 kts | 285° |
| 2026-05-05 19:24 | 2.96301 | 104.94494 | 33821 ft | 481 kts | 285° |
| 2026-05-05 19:25 | 2.98082 | 104.88044 | 33823 ft | 481 kts | 285° |
| 2026-05-05 19:25 | 2.99854 | 104.81625 | 33825 ft | 481 kts | 285° |
| 2026-05-05 19:26 | 3.01635 | 104.75173 | 33826 ft | 481 kts | 285° |
| 2026-05-05 19:26 | 3.02291 | 104.71900 | 33806 ft | 479 kts | 273° |
| 2026-05-05 19:26 | 3.02148 | 104.68586 | 33820 ft | 478 kts | 259° |
| 2026-05-05 19:27 | 3.01245 | 104.65400 | 33816 ft | 477 kts | 245° |
| 2026-05-05 19:27 | 2.99607 | 104.62525 | 33814 ft | 476 kts | 232° |
| 2026-05-05 19:27 | 2.95544 | 104.57282 | 33820 ft | 478 kts | 231° |
| 2026-05-05 19:28 | 2.91369 | 104.52107 | 33822 ft | 477 kts | 230° |
| 2026-05-05 19:28 | 2.89500 | 104.49372 | 33805 ft | 477 kts | 243° |
| 2026-05-05 19:28 | 2.88325 | 104.46270 | 33817 ft | 478 kts | 257° |
| 2026-05-05 19:29 | 2.87952 | 104.42973 | 33818 ft | 478 kts | 271° |
| 2026-05-05 19:29 | 2.88156 | 104.39691 | 33826 ft | 480 kts | 274° |
| 2026-05-05 19:29 | 2.88705 | 104.32982 | 33824 ft | 480 kts | 275° |
| 2026-05-05 19:30 | 2.89320 | 104.26374 | 33826 ft | 480 kts | 275° |
| 2026-05-05 19:30 | 2.89954 | 104.19717 | 33828 ft | 480 kts | 275° |
| 2026-05-05 19:31 | 2.90588 | 104.13067 | 33830 ft | 480 kts | 275° |
| 2026-05-05 19:31 | 2.90620 | 104.06453 | 33826 ft | 478 kts | 266° |
| 2026-05-05 19:32 | 2.90198 | 103.99801 | 33824 ft | 479 kts | 266° |
| 2026-05-05 19:32 | 2.89764 | 103.93150 | 33824 ft | 479 kts | 266° |
| 2026-05-05 19:33 | 2.89330 | 103.86513 | 33825 ft | 479 kts | 266° |
| 2026-05-05 19:33 | 2.88894 | 103.79862 | 33826 ft | 479 kts | 266° |
| 2026-05-05 19:34 | 2.88457 | 103.73208 | 33828 ft | 479 kts | 265° |
| 2026-05-05 19:35 | 2.87760 | 103.63247 | 33830 ft | 478 kts | 265° |
| 2026-05-05 19:35 | 2.87226 | 103.56613 | 33825 ft | 478 kts | 265° |
| 2026-05-05 19:36 | 2.86700 | 103.50030 | 33831 ft | 478 kts | 265° |
| 2026-05-05 19:36 | 2.86171 | 103.43399 | 33835 ft | 478 kts | 265° |
| 2026-05-05 19:37 | 2.85642 | 103.36771 | 33835 ft | 477 kts | 265° |
| 2026-05-05 19:37 | 2.85113 | 103.30152 | 33835 ft | 477 kts | 265° |
| 2026-05-05 19:38 | 2.84584 | 103.23540 | 33836 ft | 477 kts | 265° |
| 2026-05-05 19:38 | 2.84054 | 103.16925 | 33839 ft | 476 kts | 265° |
| 2026-05-05 19:39 | 2.83531 | 103.10389 | 33300 ft | 471 kts | 265° |
| 2026-05-05 19:39 | 2.83266 | 103.07092 | 32266 ft | 478 kts | 265° |
| 2026-05-05 19:39 | 2.82998 | 103.03752 | 31327 ft | 484 kts | 265° |
| 2026-05-05 19:39 | 2.82728 | 103.00375 | 30552 ft | 485 kts | 265° |
| 2026-05-05 19:40 | 2.82457 | 102.97008 | 29728 ft | 487 kts | 265° |
| 2026-05-05 19:40 | 2.82185 | 102.93615 | 28700 ft | 491 kts | 265° |
| 2026-05-05 19:40 | 2.81911 | 102.90197 | 27746 ft | 493 kts | 265° |
| 2026-05-05 19:40 | 2.81636 | 102.86775 | 26909 ft | 494 kts | 265° |
| 2026-05-05 19:41 | 2.81361 | 102.83359 | 26216 ft | 490 kts | 265° |
| 2026-05-05 19:41 | 2.81089 | 102.79969 | 25501 ft | 488 kts | 265° |
| 2026-05-05 19:41 | 2.80817 | 102.76589 | 24782 ft | 487 kts | 265° |
| 2026-05-05 19:41 | 2.80546 | 102.73214 | 24074 ft | 486 kts | 265° |
| 2026-05-05 19:42 | 2.80275 | 102.69848 | 23354 ft | 485 kts | 265° |
| 2026-05-05 19:42 | 2.79878 | 102.66557 | 22532 ft | 483 kts | 257° |
| 2026-05-05 19:42 | 2.79103 | 102.63313 | 22039 ft | 475 kts | 256° |
| 2026-05-05 19:42 | 2.78336 | 102.60125 | 21586 ft | 466 kts | 256° |
| 2026-05-05 19:43 | 2.77577 | 102.56998 | 21112 ft | 461 kts | 256° |
| 2026-05-05 19:43 | 2.76821 | 102.53888 | 20629 ft | 460 kts | 256° |
| 2026-05-05 19:43 | 2.76065 | 102.50787 | 20146 ft | 456 kts | 256° |
| 2026-05-05 19:43 | 2.75320 | 102.47728 | 19669 ft | 450 kts | 256° |
| 2026-05-05 19:44 | 2.74584 | 102.44707 | 19208 ft | 444 kts | 256° |
| 2026-05-05 19:44 | 2.73857 | 102.41724 | 18756 ft | 439 kts | 256° |
| 2026-05-05 19:44 | 2.73137 | 102.38770 | 18306 ft | 435 kts | 256° |
| 2026-05-05 19:44 | 2.72423 | 102.35838 | 17823 ft | 431 kts | 256° |
| 2026-05-05 19:45 | 2.71718 | 102.32947 | 17352 ft | 426 kts | 256° |
| 2026-05-05 19:45 | 2.71041 | 102.30084 | 16957 ft | 419 kts | 259° |
| 2026-05-05 19:45 | 2.70968 | 102.27222 | 16748 ft | 408 kts | 280° |
| 2026-05-05 19:45 | 2.71871 | 102.24598 | 16620 ft | 394 kts | 301° |
| 2026-05-05 19:46 | 2.73563 | 102.22517 | 16500 ft | 380 kts | 319° |
| 2026-05-05 19:46 | 2.75468 | 102.20736 | 16399 ft | 369 kts | 317° |
| 2026-05-05 19:46 | 2.77297 | 102.18985 | 16271 ft | 359 kts | 317° |
| 2026-05-05 19:46 | 2.79164 | 102.17436 | 16126 ft | 347 kts | 332° |
| 2026-05-05 19:47 | 2.81376 | 102.16630 | 16032 ft | 332 kts | 354° |
| 2026-05-05 19:47 | 2.83644 | 102.16585 | 15927 ft | 325 kts | 4° |
| 2026-05-05 19:47 | 2.85910 | 102.16678 | 15819 ft | 326 kts | 4° |
| 2026-05-05 19:47 | 2.88184 | 102.16713 | 15695 ft | 327 kts | 355° |
| 2026-05-05 19:48 | 2.90416 | 102.16282 | 15579 ft | 328 kts | 350° |
| 2026-05-05 19:48 | 2.92652 | 102.15817 | 15471 ft | 327 kts | 350° |
| 2026-05-05 19:48 | 2.94879 | 102.15360 | 15365 ft | 327 kts | 349° |
| 2026-05-05 19:48 | 2.97005 | 102.14558 | 15243 ft | 328 kts | 334° |
| 2026-05-05 19:49 | 2.99045 | 102.13534 | 15141 ft | 328 kts | 335° |
| 2026-05-05 19:49 | 3.00400 | 102.12864 | 15073 ft | 328 kts | 335° |
| 2026-05-05 19:49 | 3.03043 | 102.11416 | 14905 ft | 328 kts | 323° |
| 2026-05-05 19:49 | 3.04763 | 102.09918 | 14809 ft | 328 kts | 320° |
| 2026-05-05 19:50 | 3.06478 | 102.08413 | 14711 ft | 328 kts | 320° |
| 2026-05-05 19:50 | 3.08185 | 102.06898 | 14596 ft | 328 kts | 316° |
| 2026-05-05 19:50 | 3.09574 | 102.05099 | 14486 ft | 327 kts | 304° |
| 2026-05-05 19:50 | 3.10835 | 102.03201 | 14379 ft | 327 kts | 304° |
| 2026-05-05 19:51 | 3.12100 | 102.01308 | 14264 ft | 327 kts | 304° |
| 2026-05-05 19:51 | 3.13194 | 101.99326 | 14135 ft | 326 kts | 288° |
| 2026-05-05 19:51 | 3.13498 | 101.97099 | 14038 ft | 325 kts | 265° |
| 2026-05-05 19:51 | 3.12951 | 101.94923 | 13926 ft | 323 kts | 243° |
| 2026-05-05 19:52 | 3.11662 | 101.93107 | 13837 ft | 320 kts | 222° |
| 2026-05-05 19:52 | 3.09838 | 101.91871 | 13730 ft | 317 kts | 200° |
| 2026-05-05 19:52 | 3.07734 | 101.91265 | 13625 ft | 316 kts | 191° |
| 2026-05-05 19:52 | 3.05614 | 101.90781 | 13512 ft | 316 kts | 191° |
| 2026-05-05 19:53 | 3.03468 | 101.90323 | 13382 ft | 315 kts | 190° |
| 2026-05-05 19:53 | 3.01327 | 101.89884 | 13274 ft | 314 kts | 190° |
| 2026-05-05 19:53 | 2.99184 | 101.89455 | 13168 ft | 311 kts | 189° |
| 2026-05-05 19:53 | 2.97137 | 101.89051 | 13076 ft | 301 kts | 189° |
| 2026-05-05 19:54 | 2.95089 | 101.88651 | 12977 ft | 291 kts | 189° |
| 2026-05-05 19:54 | 2.93116 | 101.88267 | 12893 ft | 288 kts | 189° |
| 2026-05-05 19:54 | 2.91186 | 101.87734 | 12667 ft | 291 kts | 205° |
| 2026-05-05 19:54 | 2.89590 | 101.86498 | 12277 ft | 294 kts | 231° |
| 2026-05-05 19:55 | 2.88670 | 101.84686 | 11920 ft | 294 kts | 256° |
| 2026-05-05 19:55 | 2.88579 | 101.82657 | 11561 ft | 294 kts | 281° |
| 2026-05-05 19:55 | 2.89302 | 101.80756 | 11251 ft | 292 kts | 298° |
| 2026-05-05 19:55 | 2.90240 | 101.78959 | 10931 ft | 291 kts | 297° |
| 2026-05-05 19:56 | 2.91188 | 101.77161 | 10558 ft | 293 kts | 298° |
| 2026-05-05 19:56 | 2.92150 | 101.75355 | 10175 ft | 295 kts | 298° |
| 2026-05-05 19:56 | 2.93125 | 101.73538 | 9788 ft | 298 kts | 298° |
| 2026-05-05 19:56 | 2.94100 | 101.71732 | 9362 ft | 300 kts | 298° |
| 2026-05-05 19:57 | 2.95095 | 101.69891 | 8949 ft | 302 kts | 298° |
| 2026-05-05 19:57 | 2.95772 | 101.68640 | 8680 ft | 303 kts | 298° |
| 2026-05-05 19:57 | 2.97105 | 101.66177 | 8165 ft | 305 kts | 298° |
| 2026-05-05 19:57 | 2.98208 | 101.64398 | 7743 ft | 297 kts | 314° |
| 2026-05-05 19:58 | 2.99883 | 101.63277 | 7383 ft | 287 kts | 338° |
| 2026-05-05 19:58 | 3.01724 | 101.62571 | 7075 ft | 278 kts | 340° |
| 2026-05-05 19:58 | 3.03500 | 101.61911 | 6850 ft | 266 kts | 340° |
| 2026-05-05 19:58 | 3.05184 | 101.61282 | 6723 ft | 250 kts | 340° |
| 2026-05-05 19:59 | 3.06757 | 101.60694 | 6621 ft | 241 kts | 340° |
| 2026-05-05 19:59 | 3.08318 | 101.60042 | 6522 ft | 249 kts | 327° |
| 2026-05-05 19:59 | 3.09443 | 101.58740 | 6399 ft | 253 kts | 290° |
| 2026-05-05 19:59 | 3.09583 | 101.57011 | 6273 ft | 253 kts | 254° |
| 2026-05-05 20:00 | 3.08679 | 101.55534 | 6158 ft | 253 kts | 218° |
| 2026-05-05 20:00 | 3.07127 | 101.54711 | 5979 ft | 256 kts | 201° |
| 2026-05-05 20:00 | 3.05447 | 101.54075 | 5498 ft | 260 kts | 200° |
| 2026-05-05 20:00 | 3.03724 | 101.53542 | 4999 ft | 259 kts | 184° |
| 2026-05-05 20:01 | 3.02005 | 101.53895 | 4574 ft | 251 kts | 146° |
| 2026-05-05 20:01 | 3.00665 | 101.54952 | 4581 ft | 246 kts | 143° |
| 2026-05-05 20:01 | 2.99207 | 101.55890 | 4539 ft | 249 kts | 148° |
| 2026-05-05 20:01 | 2.97802 | 101.56760 | 4546 ft | 233 kts | 147° |
| 2026-05-05 20:02 | 2.96469 | 101.57639 | 4266 ft | 227 kts | 146° |
| 2026-05-05 20:02 | 2.95177 | 101.58511 | 3971 ft | 222 kts | 145° |
| 2026-05-05 20:02 | 2.93932 | 101.59350 | 3696 ft | 206 kts | 146° |
| 2026-05-05 20:02 | 2.92792 | 101.60119 | 3412 ft | 189 kts | 146° |
| 2026-05-05 20:03 | 2.91754 | 101.60817 | 3202 ft | 171 kts | 146° |
| 2026-05-05 20:03 | 2.90778 | 101.61475 | 3035 ft | 168 kts | 146° |
| 2026-05-05 20:03 | 2.89854 | 101.62099 | 2805 ft | 153 kts | 145° |
| 2026-05-05 20:03 | 2.88991 | 101.62681 | 2595 ft | 147 kts | 145° |
| 2026-05-05 20:04 | 2.88147 | 101.63249 | 2403 ft | 146 kts | 145° |
| 2026-05-05 20:04 | 2.87306 | 101.63816 | 2231 ft | 146 kts | 145° |
| 2026-05-05 20:04 | 2.86475 | 101.64376 | 2038 ft | 146 kts | 145° |
| 2026-05-05 20:04 | 2.85636 | 101.64942 | 1849 ft | 146 kts | 145° |
| 2026-05-05 20:05 | 2.84795 | 101.65508 | 1661 ft | 146 kts | 145° |
| 2026-05-05 20:05 | 2.83953 | 101.66075 | 1477 ft | 145 kts | 145° |
| 2026-05-05 20:05 | 2.83117 | 101.66638 | 1292 ft | 145 kts | 145° |
| 2026-05-05 20:05 | 2.82279 | 101.67203 | 1091 ft | 145 kts | 145° |
| 2026-05-05 20:06 | 2.81444 | 101.67766 | 919 ft | 144 kts | 145° |
| 2026-05-05 20:06 | 2.80610 | 101.68328 | 741 ft | 145 kts | 146° |
| 2026-05-05 20:06 | 2.79774 | 101.68889 | 572 ft | 144 kts | 145° |
| 2026-05-05 20:06 | 2.78924 | 101.69472 | 379 ft | 150 kts | 144° |
| 2026-05-05 20:07 | 2.78038 | 101.70054 | 147 ft | 152 kts | 144° |
| 2026-05-05 20:07 | 2.77210 | 101.70619 | 66 ft | 131 kts | 146° |
| 2026-05-05 20:07 | 2.76609 | 101.71020 | 65 ft | 79 kts | 146° |
| 2026-05-05 20:07 | 2.76189 | 101.71277 | 67 ft | 55 kts | 161° |
| 2026-05-05 20:08 | 2.76019 | 101.71310 | 75 ft | 7 kts | 176° |
| 2026-05-05 20:08 | 2.75968 | 101.71312 | 75 ft | 8 kts | 186° |
| 2026-05-05 20:08 | 2.75923 | 101.71272 | 75 ft | 10 kts | 233° |
| 2026-05-05 20:08 | 2.75873 | 101.71196 | 71 ft | 16 kts | 238° |
| 2026-05-05 20:09 | 2.75806 | 101.71094 | 73 ft | 18 kts | 236° |
| 2026-05-05 20:09 | 2.75757 | 101.71022 | 75 ft | 19 kts | 236° |
| 2026-05-05 20:09 | 2.75680 | 101.70905 | 69 ft | 21 kts | 236° |
| 2026-05-05 20:09 | 2.75640 | 101.70884 | 70 ft | 2 kts | 144° |
| 2026-05-05 20:10 | 2.75619 | 101.70899 | 74 ft | 6 kts | 144° |
| 2026-05-05 20:10 | 2.75592 | 101.70918 | 70 ft | 2 kts | 146° |
| 2026-05-05 20:10 | 2.75591 | 101.70918 | 70 ft | 0 kts | 146° |